Time;durP1;ratioP1;P1;durP2;ratioP2;P2;SDS_P1;SDS_P2;PMS_P1;PMS_P2;Temp;Humidity;BMP_temperature;BMP_pressure;BME280_temperature;BME280_humidity;BME280_pressure;Samples;Min_cycle;Max_cycle;Signal;HPM_P1;HPM_P2
2023/05/03 00:01:35;;;;;;;5.13;4.72;;;;;;;;;;5028854;28;20083;-73
2023/05/03 00:04:02;;;;;;;5.97;5.47;;;;;;;;;;5022767;28;20111;-73
2023/05/03 00:06:28;;;;;;;5.72;5.32;;;;;;;;;;5027507;28;20029;-74
2023/05/03 00:08:54;;;;;;;5.50;5.05;;;;;;;;;;5028637;28;20947;-73
2023/05/03 00:11:20;;;;;;;6.07;5.57;;;;;;;;;;5027197;28;20612;-73
2023/05/03 00:13:45;;;;;;;6.57;5.53;;;;;;;;;;5027978;28;20142;-74
2023/05/03 00:16:11;;;;;;;6.45;5.80;;;;;;;;;;5028754;28;20041;-73
2023/05/03 00:18:37;;;;;;;6.07;5.25;;;;;;;;;;5028015;28;20029;-73
2023/05/03 00:21:02;;;;;;;5.50;5.00;;;;;;;;;;5022220;28;20060;-74
2023/05/03 00:23:28;;;;;;;6.05;5.47;;;;;;;;;;5010436;28;20045;-72
2023/05/03 00:25:58;;;;;;;5.82;5.43;;;;;;;;;;5028311;28;20037;-73
2023/05/03 00:28:24;;;;;;;5.28;4.78;;;;;;;;;;5024620;28;20059;-73
2023/05/03 00:30:51;;;;;;;5.38;4.97;;;;;;;;;;5028180;28;20773;-71
2023/05/03 00:33:17;;;;;;;5.80;5.30;;;;;;;;;;5010464;28;20038;-73
2023/05/03 00:35:43;;;;;;;7.30;5.40;;;;;;;;;;5026391;28;20044;-73
2023/05/03 00:38:09;;;;;;;5.82;5.30;;;;;;;;;;5008384;28;20033;-74
2023/05/03 00:40:35;;;;;;;5.40;5.00;;;;;;;;;;5028020;28;20400;-74
2023/05/03 00:43:01;;;;;;;6.70;5.15;;;;;;;;;;5008669;28;20096;-73
2023/05/03 00:45:29;;;;;;;6.63;4.88;;;;;;;;;;5007118;28;20656;-73
2023/05/03 00:47:55;;;;;;;5.60;5.10;;;;;;;;;;5006559;28;20048;-71
2023/05/03 00:50:21;;;;;;;6.40;4.97;;;;;;;;;;5008211;28;20389;-73
2023/05/03 00:52:47;;;;;;;5.65;5.15;;;;;;;;;;5006254;28;20112;-74
2023/05/03 00:55:14;;;;;;;5.82;5.32;;;;;;;;;;5009816;28;20404;-74
2023/05/03 00:57:39;;;;;;;5.18;4.88;;;;;;;;;;5007315;28;20770;-73
2023/05/03 01:00:09;;;;;;;4.88;4.47;;;;;;;;;;5008402;28;20095;-73
2023/05/03 01:02:35;;;;;;;5.60;5.10;;;;;;;;;;5025498;28;20048;-74
2023/05/03 01:05:02;;;;;;;4.95;4.40;;;;;;;;;;5027239;28;20042;-74
2023/05/03 01:07:51;;;;;;;5.45;5.05;;;;;;;;;;5009622;28;20044;-73
2023/05/03 01:10:32;;;;;;;5.43;4.93;;;;;;;;;;5024883;28;20048;-73
2023/05/03 01:13:36;;;;;;;6.35;4.72;;;;;;;;;;5006523;28;20123;-73
2023/05/03 01:16:11;;;;;;;5.75;5.00;;;;;;;;;;4924115;29;20031;-74
2023/05/03 01:18:39;;;;;;;7.05;5.68;;;;;;;;;;4924792;29;20031;-74
2023/05/03 01:21:08;;;;;;;5.65;5.15;;;;;;;;;;4936324;28;20824;-73
2023/05/03 01:23:41;;;;;;;6.40;5.80;;;;;;;;;;4938395;28;20075;-74
2023/05/03 01:26:24;;;;;;;5.93;4.93;;;;;;;;;;4941514;29;20042;-74
2023/05/03 01:28:50;;;;;;;5.35;4.75;;;;;;;;;;4934849;28;20098;-75
2023/05/03 01:31:37;;;;;;;4.45;4.18;;;;;;;;;;4938254;28;20133;-75
2023/05/03 01:34:32;;;;;;;5.43;4.93;;;;;;;;;;4939177;29;20063;-73
2023/05/03 01:37:01;;;;;;;5.93;5.32;;;;;;;;;;4935407;28;20051;-73
2023/05/03 01:39:37;;;;;;;5.30;4.95;;;;;;;;;;4921817;28;20047;-73
2023/05/03 01:42:04;;;;;;;10.25;5.40;;;;;;;;;;4942054;29;20683;-74
2023/05/03 01:44:31;;;;;;;9.50;5.35;;;;;;;;;;4916209;28;20058;-73
2023/05/03 01:46:57;;;;;;;5.65;5.18;;;;;;;;;;4984440;28;20050;-73
2023/05/03 01:49:22;;;;;;;5.07;4.78;;;;;;;;;;5007060;28;20037;-74
2023/05/03 01:51:48;;;;;;;4.57;4.28;;;;;;;;;;5006330;28;20037;-73
2023/05/03 01:54:13;;;;;;;5.22;4.72;;;;;;;;;;5008194;28;20029;-74
2023/05/03 01:56:40;;;;;;;6.80;5.93;;;;;;;;;;5008979;28;20477;-74
2023/05/03 01:59:05;;;;;;;5.90;5.43;;;;;;;;;;5008711;28;20041;-74
2023/05/03 02:01:31;;;;;;;6.30;5.13;;;;;;;;;;5007554;28;20033;-75
2023/05/03 02:03:56;;;;;;;5.93;5.43;;;;;;;;;;5008944;28;20167;-74
2023/05/03 02:06:23;;;;;;;9.25;4.70;;;;;;;;;;5026492;28;20040;-73
2023/05/03 02:08:49;;;;;;;9.18;4.57;;;;;;;;;;5007572;28;20499;-74
2023/05/03 02:11:14;;;;;;;5.38;4.90;;;;;;;;;;5010817;28;20033;-73
2023/05/03 02:13:40;;;;;;;4.47;4.13;;;;;;;;;;5008078;28;20042;-73
2023/05/03 02:16:06;;;;;;;6.55;4.75;;;;;;;;;;5006401;28;20087;-72
2023/05/03 02:18:32;;;;;;;5.18;4.78;;;;;;;;;;5007057;28;20049;-75
2023/05/03 02:20:58;;;;;;;4.70;4.38;;;;;;;;;;5026268;28;20056;-75
2023/05/03 02:23:23;;;;;;;4.70;4.40;;;;;;;;;;4998188;28;20060;-75
2023/05/03 02:25:49;;;;;;;5.00;4.60;;;;;;;;;;5011458;28;20059;-73
2023/05/03 02:28:15;;;;;;;5.03;4.65;;;;;;;;;;5025959;28;20099;-73
2023/05/03 02:30:41;;;;;;;4.90;4.45;;;;;;;;;;5006946;28;20148;-72
2023/05/03 02:33:07;;;;;;;5.07;4.68;;;;;;;;;;5010577;28;20038;-71
2023/05/03 02:35:35;;;;;;;5.78;5.22;;;;;;;;;;5008332;28;20389;-73
2023/05/03 02:38:00;;;;;;;4.82;4.43;;;;;;;;;;5008546;28;20029;-72
2023/05/03 02:40:26;;;;;;;4.53;4.22;;;;;;;;;;5006100;28;20037;-74
2023/05/03 02:42:53;;;;;;;6.93;4.45;;;;;;;;;;5006256;28;20033;-73
2023/05/03 02:45:23;;;;;;;5.75;5.25;;;;;;;;;;4990693;28;20033;-73
2023/05/03 02:47:49;;;;;;;5.03;4.63;;;;;;;;;;5008223;28;20443;-73
2023/05/03 02:50:14;;;;;;;5.05;4.65;;;;;;;;;;5025719;28;20113;-72
2023/05/03 02:52:40;;;;;;;5.13;4.75;;;;;;;;;;5006998;28;20040;-72
2023/05/03 02:55:06;;;;;;;5.25;4.85;;;;;;;;;;5003934;28;20029;-73
2023/05/03 02:57:33;;;;;;;5.30;4.85;;;;;;;;;;5009803;28;20029;-74
2023/05/03 02:59:58;;;;;;;5.32;4.82;;;;;;;;;;5006817;28;20039;-74
2023/05/03 03:02:25;;;;;;;5.25;4.80;;;;;;;;;;5008192;28;20065;-74
2023/05/03 03:04:51;;;;;;;4.95;4.45;;;;;;;;;;5003345;28;20037;-73
2023/05/03 03:07:17;;;;;;;4.43;4.05;;;;;;;;;;5008038;28;20658;-73
2023/05/03 03:09:42;;;;;;;6.07;4.90;;;;;;;;;;5011342;28;20508;-74
2023/05/03 03:12:08;;;;;;;5.38;4.95;;;;;;;;;;5007079;28;20718;-74
2023/05/03 03:14:34;;;;;;;4.97;4.57;;;;;;;;;;5006474;28;20041;-72
2023/05/03 03:17:02;;;;;;;4.45;4.10;;;;;;;;;;5007870;28;20033;-74
2023/05/03 03:19:28;;;;;;;7.45;6.07;;;;;;;;;;5010755;28;20052;-73
2023/05/03 03:21:54;;;;;;;5.70;5.20;;;;;;;;;;5005451;28;20034;-73
2023/05/03 03:24:19;;;;;;;7.20;5.90;;;;;;;;;;5023071;28;20050;-74
2023/05/03 03:26:46;;;;;;;6.63;5.55;;;;;;;;;;5012238;28;20837;-73
2023/05/03 03:29:11;;;;;;;5.97;5.13;;;;;;;;;;5011412;28;20128;-72
2023/05/03 03:31:40;;;;;;;5.35;4.85;;;;;;;;;;5011455;28;20029;-72
2023/05/03 03:34:06;;;;;;;5.88;4.97;;;;;;;;;;5011891;28;20091;-74
2023/05/03 03:36:32;;;;;;;5.95;5.32;;;;;;;;;;5029314;28;20037;-72
2023/05/03 03:38:57;;;;;;;5.93;5.32;;;;;;;;;;5028915;28;20076;-72
2023/05/03 03:41:24;;;;;;;6.85;5.35;;;;;;;;;;5008472;28;20030;-73
2023/05/03 03:43:53;;;;;;;7.90;5.70;;;;;;;;;;5011113;28;20057;-72
2023/05/03 03:46:19;;;;;;;8.00;6.05;;;;;;;;;;5009142;28;20077;-73
2023/05/03 03:48:48;;;;;;;6.35;4.95;;;;;;;;;;5012408;28;20492;-73
2023/05/03 03:51:15;;;;;;;5.53;5.03;;;;;;;;;;5011167;28;20112;-72
2023/05/03 03:53:45;;;;;;;7.38;6.10;;;;;;;;;;5008369;28;20469;-73
2023/05/03 03:56:11;;;;;;;7.47;5.55;;;;;;;;;;5011824;28;20034;-73
2023/05/03 03:58:37;;;;;;;5.57;5.07;;;;;;;;;;5010843;28;20041;-73
2023/05/03 04:01:05;;;;;;;6.38;5.75;;;;;;;;;;5009544;28;20041;-72
2023/05/03 04:03:32;;;;;;;6.80;5.28;;;;;;;;;;5027944;28;20033;-73
2023/05/03 04:05:58;;;;;;;6.22;5.45;;;;;;;;;;5014313;28;20163;-73
2023/05/03 04:08:24;;;;;;;6.05;5.50;;;;;;;;;;5008519;28;20128;-72
2023/05/03 04:10:50;;;;;;;7.75;6.00;;;;;;;;;;4997292;28;20704;-73
2023/05/03 04:13:17;;;;;;;12.45;5.40;;;;;;;;;;5010425;28;20043;-73
2023/05/03 04:15:45;;;;;;;6.43;5.83;;;;;;;;;;5010494;28;20044;-72
2023/05/03 04:18:12;;;;;;;7.28;6.30;;;;;;;;;;5007306;28;20520;-71
2023/05/03 04:20:39;;;;;;;7.85;6.47;;;;;;;;;;5009262;28;20036;-73
2023/05/03 04:23:06;;;;;;;7.03;5.97;;;;;;;;;;4987033;28;20042;-72
2023/05/03 04:25:32;;;;;;;8.30;6.90;;;;;;;;;;5010894;28;20034;-72
2023/05/03 04:28:03;;;;;;;6.30;5.80;;;;;;;;;;5010338;28;20037;-73
2023/05/03 04:30:30;;;;;;;5.60;5.10;;;;;;;;;;4993274;28;20065;-71
2023/05/03 04:32:59;;;;;;;6.53;5.90;;;;;;;;;;5006340;28;20049;-73
2023/05/03 04:35:25;;;;;;;10.30;5.97;;;;;;;;;;5006165;28;20041;-73
2023/05/03 04:37:51;;;;;;;7.70;6.22;;;;;;;;;;5010005;28;20087;-73
2023/05/03 04:40:20;;;;;;;9.10;6.97;;;;;;;;;;5008603;28;20025;-72
2023/05/03 04:42:54;;;;;;;9.38;7.03;;;;;;;;;;5009695;28;20505;-72
2023/05/03 04:45:20;;;;;;;9.20;6.93;;;;;;;;;;5010073;28;20037;-73
2023/05/03 04:47:47;;;;;;;7.05;6.30;;;;;;;;;;5009926;28;20029;-72
2023/05/03 04:50:12;;;;;;;12.75;6.35;;;;;;;;;;4999575;28;20120;-72
2023/05/03 04:52:41;;;;;;;7.05;6.40;;;;;;;;;;5006726;28;20026;-73
2023/05/03 04:55:08;;;;;;;8.52;6.32;;;;;;;;;;5027259;28;20441;-72
2023/05/03 04:57:35;;;;;;;7.68;6.53;;;;;;;;;;5010006;28;20044;-73
2023/05/03 05:00:02;;;;;;;8.25;7.43;;;;;;;;;;5006643;28;20033;-72
2023/05/03 05:02:29;;;;;;;9.23;7.30;;;;;;;;;;5027344;28;20107;-73
2023/05/03 05:04:54;;;;;;;8.90;6.30;;;;;;;;;;5009968;28;20061;-72
2023/05/03 05:07:20;;;;;;;7.45;6.18;;;;;;;;;;5009618;28;20033;-72
2023/05/03 05:09:46;;;;;;;10.90;6.68;;;;;;;;;;5007641;28;20037;-73
2023/05/03 05:12:11;;;;;;;7.75;6.47;;;;;;;;;;5009919;28;20044;-72
2023/05/03 05:14:40;;;;;;;6.53;5.97;;;;;;;;;;5006032;28;20048;-73
2023/05/03 05:17:07;;;;;;;8.07;7.28;;;;;;;;;;5006888;28;20533;-73
2023/05/03 05:19:33;;;;;;;9.20;6.35;;;;;;;;;;5006555;28;20067;-74
2023/05/03 05:21:59;;;;;;;8.80;7.03;;;;;;;;;;5010212;28;20040;-71
2023/05/03 05:24:33;;;;;;;7.07;6.43;;;;;;;;;;4992875;28;20052;-72
2023/05/03 05:27:00;;;;;;;7.80;6.55;;;;;;;;;;5009215;28;20119;-70
2023/05/03 05:29:26;;;;;;;8.02;6.50;;;;;;;;;;5007627;28;20390;-71
2023/05/03 05:31:52;;;;;;;7.72;6.82;;;;;;;;;;5009403;28;20033;-71
2023/05/03 05:34:19;;;;;;;7.25;6.55;;;;;;;;;;5009419;28;20548;-72
2023/05/03 05:36:45;;;;;;;8.27;6.53;;;;;;;;;;5025881;28;20112;-70
2023/05/03 05:39:11;;;;;;;8.80;6.82;;;;;;;;;;5007394;28;20044;-73
2023/05/03 05:41:36;;;;;;;7.53;6.78;;;;;;;;;;5009435;28;20030;-74
2023/05/03 05:44:03;;;;;;;9.57;6.63;;;;;;;;;;5007521;28;20029;-72
2023/05/03 05:46:29;;;;;;;6.68;6.07;;;;;;;;;;5008791;28;20127;-71
2023/05/03 05:48:55;;;;;;;7.15;6.47;;;;;;;;;;5004973;28;20568;-74
2023/05/03 05:51:21;;;;;;;6.72;6.03;;;;;;;;;;5009230;28;20105;-73
2023/05/03 05:53:47;;;;;;;7.03;6.32;;;;;;;;;;5009373;28;20044;-73
2023/05/03 05:56:14;;;;;;;7.45;6.22;;;;;;;;;;5005271;28;20872;-73
2023/05/03 05:58:40;;;;;;;7.40;5.95;;;;;;;;;;5008951;28;20061;-73
2023/05/03 06:01:06;;;;;;;6.75;6.15;;;;;;;;;;5009228;28;20080;-73
2023/05/03 06:03:35;;;;;;;6.30;5.70;;;;;;;;;;5009388;28;20057;-73
2023/05/03 06:06:03;;;;;;;6.72;6.03;;;;;;;;;;4990529;28;20052;-73
2023/05/03 06:08:30;;;;;;;8.60;6.47;;;;;;;;;;5008605;28;20079;-72
2023/05/03 06:10:55;;;;;;;6.43;5.82;;;;;;;;;;5009220;28;20073;-73
2023/05/03 06:13:23;;;;;;;7.03;6.30;;;;;;;;;;5005961;28;20037;-74
2023/05/03 06:15:49;;;;;;;7.30;6.60;;;;;;;;;;5008726;28;20036;-73
2023/05/03 06:18:15;;;;;;;7.00;6.15;;;;;;;;;;5007245;28;20128;-72
2023/05/03 06:20:43;;;;;;;11.30;6.40;;;;;;;;;;5008907;28;20060;-73
2023/05/03 06:23:09;;;;;;;7.28;6.57;;;;;;;;;;5005853;28;20045;-74
2023/05/03 06:25:36;;;;;;;6.90;6.28;;;;;;;;;;5008432;28;20037;-72
2023/05/03 06:28:03;;;;;;;7.25;6.55;;;;;;;;;;5007384;28;20107;-72
2023/05/03 06:30:31;;;;;;;7.95;6.28;;;;;;;;;;5006829;28;20579;-72
2023/05/03 06:33:03;;;;;;;6.88;6.18;;;;;;;;;;5008251;28;20037;-73
2023/05/03 06:35:31;;;;;;;6.88;6.20;;;;;;;;;;5008077;28;20052;-73
2023/05/03 06:37:56;;;;;;;8.93;6.32;;;;;;;;;;5021957;28;20088;-72
2023/05/03 06:40:24;;;;;;;8.98;7.20;;;;;;;;;;5024439;28;20668;-74
2023/05/03 06:42:50;;;;;;;5.97;5.40;;;;;;;;;;5008580;28;20041;-73
2023/05/03 06:45:36;;;;;;;9.07;5.65;;;;;;;;;;5025310;28;20121;-72
2023/05/03 06:48:01;;;;;;;8.05;6.68;;;;;;;;;;5026319;28;20049;-74
2023/05/03 06:50:27;;;;;;;7.13;6.45;;;;;;;;;;5021123;28;20076;-73
2023/05/03 06:52:53;;;;;;;6.88;5.88;;;;;;;;;;5007018;28;20412;-74
2023/05/03 06:55:19;;;;;;;7.00;6.30;;;;;;;;;;5025985;28;20076;-74
2023/05/03 06:57:47;;;;;;;10.18;6.43;;;;;;;;;;5023362;28;20030;-74
2023/05/03 07:00:13;;;;;;;7.10;6.13;;;;;;;;;;5028099;28;20108;-72
2023/05/03 07:02:39;;;;;;;8.68;6.15;;;;;;;;;;5028933;28;20121;-74
2023/05/03 07:05:05;;;;;;;7.93;6.40;;;;;;;;;;5028852;28;20136;-73
2023/05/03 07:07:32;;;;;;;7.78;6.93;;;;;;;;;;5027300;28;20068;-74
2023/05/03 07:09:57;;;;;;;7.25;6.55;;;;;;;;;;5029732;28;20040;-74
2023/05/03 07:12:26;;;;;;;7.75;6.75;;;;;;;;;;5028363;28;20030;-73
2023/05/03 07:14:55;;;;;;;9.02;6.75;;;;;;;;;;5026702;28;20130;-73
2023/05/03 07:17:21;;;;;;;6.43;5.82;;;;;;;;;;5029469;28;20068;-74
2023/05/03 07:19:48;;;;;;;8.10;6.60;;;;;;;;;;5028314;28;20037;-73
2023/05/03 07:22:15;;;;;;;7.18;6.35;;;;;;;;;;5027586;28;20108;-73
2023/05/03 07:24:40;;;;;;;8.73;7.07;;;;;;;;;;5029234;28;20113;-72
2023/05/03 07:27:06;;;;;;;7.32;6.30;;;;;;;;;;5030935;28;20043;-74
2023/05/03 07:29:31;;;;;;;8.73;6.30;;;;;;;;;;5028575;28;20043;-73
2023/05/03 07:31:58;;;;;;;8.45;6.07;;;;;;;;;;5028176;28;20026;-72
2023/05/03 07:34:24;;;;;;;7.40;6.70;;;;;;;;;;5028547;28;20072;-73
2023/05/03 07:36:50;;;;;;;7.55;6.28;;;;;;;;;;5029414;28;20041;-72
2023/05/03 07:39:17;;;;;;;7.47;6.65;;;;;;;;;;5028688;28;20056;-74
2023/05/03 07:41:42;;;;;;;7.13;6.43;;;;;;;;;;5026232;28;20033;-79
2023/05/03 07:44:08;;;;;;;9.30;6.22;;;;;;;;;;5027776;28;20071;-73
2023/05/03 07:46:34;;;;;;;8.07;6.55;;;;;;;;;;5028954;28;20042;-74
2023/05/03 07:49:04;;;;;;;6.72;6.03;;;;;;;;;;5027622;28;20060;-73
2023/05/03 07:51:34;;;;;;;6.97;6.28;;;;;;;;;;5026484;28;20041;-74
2023/05/03 07:54:00;;;;;;;9.45;6.53;;;;;;;;;;5027520;28;20044;-73
2023/05/03 07:56:27;;;;;;;7.20;6.50;;;;;;;;;;5028609;28;20033;-72
2023/05/03 07:58:53;;;;;;;7.70;6.90;;;;;;;;;;5008312;28;20060;-73
2023/05/03 08:01:20;;;;;;;7.93;5.97;;;;;;;;;;5027630;28;20397;-73
2023/05/03 08:03:49;;;;;;;12.20;6.68;;;;;;;;;;5010193;28;20037;-73
2023/05/03 08:06:15;;;;;;;6.70;6.00;;;;;;;;;;5026519;28;20045;-73
2023/05/03 08:08:41;;;;;;;6.60;5.97;;;;;;;;;;5010464;28;20473;-71
2023/05/03 08:11:08;;;;;;;7.35;6.60;;;;;;;;;;5027572;28;20088;-71
2023/05/03 08:13:33;;;;;;;10.25;6.35;;;;;;;;;;5028443;28;20041;-73
2023/05/03 08:15:59;;;;;;;7.10;6.40;;;;;;;;;;5026969;28;20037;-71
2023/05/03 08:18:25;;;;;;;7.82;7.00;;;;;;;;;;5028000;28;20052;-73
2023/05/03 08:20:51;;;;;;;8.50;6.72;;;;;;;;;;5028667;28;20033;-73
2023/05/03 08:23:16;;;;;;;7.82;6.40;;;;;;;;;;5027107;28;20037;-73
2023/05/03 08:25:44;;;;;;;10.88;6.18;;;;;;;;;;5026299;28;20555;-73
2023/05/03 08:28:10;;;;;;;6.70;5.68;;;;;;;;;;5027822;28;20091;-71
2023/05/03 08:30:36;;;;;;;9.65;6.63;;;;;;;;;;5027098;28;20033;-72
2023/05/03 08:33:01;;;;;;;8.52;5.95;;;;;;;;;;5028710;28;20052;-71
2023/05/03 08:35:27;;;;;;;6.60;6.00;;;;;;;;;;5007862;28;20033;-72
2023/05/03 08:37:53;;;;;;;6.60;5.82;;;;;;;;;;5010476;28;20033;-74
2023/05/03 08:40:21;;;;;;;7.25;5.75;;;;;;;;;;5027775;28;20083;-71
2023/05/03 08:42:48;;;;;;;6.85;6.20;;;;;;;;;;5028198;28;20035;-72
2023/05/03 08:45:15;;;;;;;6.22;5.63;;;;;;;;;;5024312;28;20155;-72
2023/05/03 08:47:43;;;;;;;7.97;6.28;;;;;;;;;;5028052;28;20091;-73
2023/05/03 08:50:10;;;;;;;6.90;6.20;;;;;;;;;;5027116;28;20041;-73
2023/05/03 08:52:38;;;;;;;7.00;6.20;;;;;;;;;;5007061;28;20021;-73
2023/05/03 08:55:06;;;;;;;6.22;5.63;;;;;;;;;;5027725;28;20299;-72
2023/05/03 08:57:34;;;;;;;7.85;5.82;;;;;;;;;;5027799;28;20068;-72
2023/05/03 09:00:00;;;;;;;6.65;5.72;;;;;;;;;;5026742;28;20037;-74
2023/05/03 09:02:27;;;;;;;6.57;5.97;;;;;;;;;;5023394;28;20039;-74
2023/05/03 09:04:53;;;;;;;6.65;5.97;;;;;;;;;;5027792;28;20091;-71
2023/05/03 09:07:19;;;;;;;5.88;5.32;;;;;;;;;;5026451;28;20061;-73
2023/05/03 09:09:47;;;;;;;6.88;6.18;;;;;;;;;;5027411;28;20378;-73
2023/05/03 09:12:35;;;;;;;7.65;6.20;;;;;;;;;;5024701;28;20052;-71
2023/05/03 09:15:02;;;;;;;5.95;5.28;;;;;;;;;;5027805;28;20628;-72
2023/05/03 09:17:28;;;;;;;7.40;6.07;;;;;;;;;;5026528;28;20040;-73
2023/05/03 09:19:56;;;;;;;6.82;6.13;;;;;;;;;;5025674;28;20389;-71
2023/05/03 09:22:25;;;;;;;9.53;6.30;;;;;;;;;;5027289;28;20033;-72
2023/05/03 09:24:55;;;;;;;9.50;7.03;;;;;;;;;;5027553;28;20049;-72
2023/05/03 09:27:23;;;;;;;7.93;7.13;;;;;;;;;;5025626;28;20064;-73
2023/05/03 09:29:49;;;;;;;7.47;6.78;;;;;;;;;;5026895;28;20068;-73
2023/05/03 09:32:16;;;;;;;6.18;5.57;;;;;;;;;;5009908;28;20046;-74
2023/05/03 09:34:42;;;;;;;8.38;6.22;;;;;;;;;;5020580;28;20059;-72
2023/05/03 09:37:08;;;;;;;7.10;6.50;;;;;;;;;;5026545;28;20501;-70
2023/05/03 09:39:35;;;;;;;6.70;5.70;;;;;;;;;;5026791;28;20478;-74
2023/05/03 09:42:31;;;;;;;6.25;5.75;;;;;;;;;;5027336;28;20033;-74
2023/05/03 09:44:56;;;;;;;5.45;5.05;;;;;;;;;;4955415;28;20064;-72
2023/05/03 09:47:24;;;;;;;6.90;6.30;;;;;;;;;;4965691;28;20047;-72
2023/05/03 09:49:49;;;;;;;6.47;5.60;;;;;;;;;;4965590;28;20042;-73
2023/05/03 09:52:16;;;;;;;6.50;5.88;;;;;;;;;;4962333;28;20128;-71
2023/05/03 09:54:42;;;;;;;7.43;6.25;;;;;;;;;;4965491;28;20082;-72
2023/05/03 09:57:08;;;;;;;7.45;5.72;;;;;;;;;;4931222;28;20130;-73
2023/05/03 09:59:36;;;;;;;6.20;5.22;;;;;;;;;;4955104;28;20045;-75
2023/05/03 10:02:04;;;;;;;5.45;5.05;;;;;;;;;;4964345;28;20093;-75
2023/05/03 10:04:49;;;;;;;5.75;4.72;;;;;;;;;;4965493;28;20042;-73
2023/05/03 10:07:17;;;;;;;6.57;5.22;;;;;;;;;;4963825;28;20047;-72
2023/05/03 10:09:45;;;;;;;6.50;5.53;;;;;;;;;;4963282;28;20648;-71
2023/05/03 10:12:12;;;;;;;6.25;5.38;;;;;;;;;;4963890;28;20075;-73
2023/05/03 10:14:41;;;;;;;5.60;5.20;;;;;;;;;;4965041;28;20061;-70
2023/05/03 10:17:15;;;;;;;6.30;5.45;;;;;;;;;;4965381;28;20053;-73
2023/05/03 10:19:50;;;;;;;6.00;4.97;;;;;;;;;;4965139;28;20038;-73
2023/05/03 10:22:15;;;;;;;5.10;4.60;;;;;;;;;;5018796;28;20053;-71
2023/05/03 10:25:13;;;;;;;5.30;4.80;;;;;;;;;;5026643;28;20033;-73
2023/05/03 10:27:45;;;;;;;5.65;5.15;;;;;;;;;;4925268;29;20156;-73
2023/05/03 10:30:33;;;;;;;6.00;4.75;;;;;;;;;;4921039;29;20095;-73
2023/05/03 10:33:16;;;;;;;5.10;4.57;;;;;;;;;;4918342;29;20060;-72
2023/05/03 10:35:51;;;;;;;5.28;4.78;;;;;;;;;;4930584;29;20039;-73
2023/05/03 10:38:25;;;;;;;8.90;5.05;;;;;;;;;;4928864;29;20079;-72
2023/05/03 10:40:52;;;;;;;5.45;4.95;;;;;;;;;;4929074;29;20027;-72
2023/05/03 10:43:29;;;;;;;6.43;5.13;;;;;;;;;;4928046;29;20081;-73
2023/05/03 10:45:56;;;;;;;6.40;5.18;;;;;;;;;;4929694;29;20071;-71
2023/05/03 10:48:21;;;;;;;5.22;4.82;;;;;;;;;;4930411;29;20515;-73
2023/05/03 10:50:48;;;;;;;6.88;4.97;;;;;;;;;;4930722;29;20133;-74
2023/05/03 10:53:38;;;;;;;5.55;5.03;;;;;;;;;;4930580;29;20067;-71
2023/05/03 10:56:11;;;;;;;5.53;5.03;;;;;;;;;;4925629;29;20087;-72
2023/05/03 10:58:43;;;;;;;4.68;4.28;;;;;;;;;;4927789;29;20461;-71
2023/05/03 11:01:10;;;;;;;4.88;4.47;;;;;;;;;;4929975;29;20054;-72
2023/05/03 11:04:09;;;;;;;4.97;4.47;;;;;;;;;;4989896;28;20041;-73
2023/05/03 11:06:36;;;;;;;5.78;5.38;;;;;;;;;;5030157;28;20512;-73
2023/05/03 11:09:07;;;;;;;5.13;4.63;;;;;;;;;;5027732;28;20033;-72
2023/05/03 11:11:35;;;;;;;4.80;4.40;;;;;;;;;;5030082;28;20037;-73
2023/05/03 11:14:02;;;;;;;4.55;4.20;;;;;;;;;;5029775;28;20551;-73
2023/05/03 11:16:27;;;;;;;5.20;4.80;;;;;;;;;;5027100;28;20049;-72
2023/05/03 11:18:53;;;;;;;4.70;4.40;;;;;;;;;;5029770;28;20034;-74
2023/05/03 11:21:20;;;;;;;5.13;4.72;;;;;;;;;;5028156;28;20116;-73
2023/05/03 11:23:45;;;;;;;4.82;4.43;;;;;;;;;;5027512;28;20033;-73
2023/05/03 11:26:11;;;;;;;5.10;4.30;;;;;;;;;;5029713;28;20392;-73
2023/05/03 11:28:38;;;;;;;4.97;4.50;;;;;;;;;;5028584;28;20033;-73
2023/05/03 11:31:05;;;;;;;4.95;4.57;;;;;;;;;;5010358;28;20613;-73
2023/05/03 11:33:33;;;;;;;5.70;4.95;;;;;;;;;;5025657;28;20044;-72
2023/05/03 11:36:05;;;;;;;5.10;4.70;;;;;;;;;;5029819;28;20041;-73
2023/05/03 11:38:32;;;;;;;4.80;4.50;;;;;;;;;;5028566;28;20044;-71
2023/05/03 11:40:58;;;;;;;5.50;5.00;;;;;;;;;;5029872;28;20083;-73
2023/05/03 11:43:25;;;;;;;5.15;4.63;;;;;;;;;;5026064;28;20037;-70
2023/05/03 11:45:55;;;;;;;5.30;4.90;;;;;;;;;;5026153;28;20079;-73
2023/05/03 11:48:20;;;;;;;5.55;5.15;;;;;;;;;;4995102;28;20041;-73
2023/05/03 11:50:54;;;;;;;5.88;5.28;;;;;;;;;;5029306;28;20209;-73
2023/05/03 11:53:22;;;;;;;5.80;5.20;;;;;;;;;;5027645;28;20076;-72
2023/05/03 11:55:52;;;;;;;5.38;4.97;;;;;;;;;;5010668;28;20109;-72
2023/05/03 11:58:22;;;;;;;8.57;5.15;;;;;;;;;;5033446;28;20521;-73
2023/05/03 12:00:56;;;;;;;5.43;5.03;;;;;;;;;;5023305;28;20742;-72
2023/05/03 12:03:24;;;;;;;6.20;5.70;;;;;;;;;;5027216;28;20064;-72
2023/05/03 12:05:51;;;;;;;5.93;5.32;;;;;;;;;;5029046;28;20025;-72
2023/05/03 12:08:20;;;;;;;5.40;5.00;;;;;;;;;;5027606;28;20128;-72
2023/05/03 12:10:46;;;;;;;6.30;5.78;;;;;;;;;;5026925;28;20035;-71
2023/05/03 12:13:12;;;;;;;6.45;5.85;;;;;;;;;;5029235;28;20044;-72
2023/05/03 12:15:39;;;;;;;6.05;5.65;;;;;;;;;;5027825;28;20400;-69
2023/05/03 12:18:07;;;;;;;6.00;5.40;;;;;;;;;;5028714;28;20045;-72
2023/05/03 12:20:35;;;;;;;5.75;5.35;;;;;;;;;;5026133;28;20083;-73
2023/05/03 12:23:02;;;;;;;5.80;5.40;;;;;;;;;;5025126;28;20030;-72
2023/05/03 12:25:29;;;;;;;7.13;5.60;;;;;;;;;;5026673;28;20029;-72
2023/05/03 12:27:57;;;;;;;5.60;5.20;;;;;;;;;;5026577;28;20116;-73
2023/05/03 12:30:22;;;;;;;6.22;5.72;;;;;;;;;;5027743;28;20091;-72
2023/05/03 12:32:49;;;;;;;6.47;5.88;;;;;;;;;;5009908;28;20505;-72
2023/05/03 12:35:15;;;;;;;6.20;5.80;;;;;;;;;;5027293;28;20029;-71
2023/05/03 12:37:40;;;;;;;7.05;5.43;;;;;;;;;;5022421;28;20029;-72
2023/05/03 12:40:07;;;;;;;5.47;5.18;;;;;;;;;;5014184;28;20100;-71
2023/05/03 12:42:33;;;;;;;6.55;5.95;;;;;;;;;;5026288;28;20041;-71
2023/05/03 12:44:59;;;;;;;5.97;5.57;;;;;;;;;;5026320;28;20047;-71
2023/05/03 12:47:28;;;;;;;6.30;5.80;;;;;;;;;;5023870;28;20791;-71
2023/05/03 12:49:53;;;;;;;5.20;4.80;;;;;;;;;;5025727;28;20775;-71
2023/05/03 12:52:20;;;;;;;6.18;5.68;;;;;;;;;;5025939;28;20063;-72
2023/05/03 12:54:46;;;;;;;6.28;5.80;;;;;;;;;;5024320;28;20095;-72
2023/05/03 12:57:13;;;;;;;6.20;5.63;;;;;;;;;;5025576;28;20041;-73
2023/05/03 12:59:42;;;;;;;6.15;5.65;;;;;;;;;;5025786;28;20587;-72
2023/05/03 13:02:12;;;;;;;;;;;;;;;;;;5025640;28;20037;-72
2023/05/03 13:04:37;;;;;;;5.68;5.28;;;;;;;;;;5023679;28;19921;-72
2023/05/03 13:07:03;;;;;;;5.35;5.00;;;;;;;;;;5025895;28;20045;-72
2023/05/03 13:09:28;;;;;;;5.22;4.90;;;;;;;;;;5023826;28;20041;-72
2023/05/03 13:11:54;;;;;;;5.72;5.32;;;;;;;;;;5024134;28;20363;-74
2023/05/03 13:14:20;;;;;;;5.63;5.25;;;;;;;;;;5007725;28;20041;-72
2023/05/03 13:16:47;;;;;;;5.53;5.13;;;;;;;;;;5008279;28;20037;-72
2023/05/03 13:19:14;;;;;;;5.60;5.20;;;;;;;;;;5023929;28;20388;-72
2023/05/03 13:21:41;;;;;;;5.60;5.20;;;;;;;;;;5021909;28;20064;-72
2023/05/03 13:24:07;;;;;;;5.65;5.15;;;;;;;;;;5025715;28;20045;-72
2023/05/03 13:26:32;;;;;;;5.30;4.90;;;;;;;;;;5009173;28;20041;-72
2023/05/03 13:28:59;;;;;;;5.25;4.93;;;;;;;;;;4988511;28;20137;-72
2023/05/03 13:31:28;;;;;;;6.75;5.28;;;;;;;;;;5022626;28;20041;-72
2023/05/03 13:33:55;;;;;;;5.82;5.47;;;;;;;;;;5025127;28;20034;-72
2023/05/03 13:36:28;;;;;;;5.72;5.32;;;;;;;;;;5024254;28;20033;-72
2023/05/03 13:38:54;;;;;;;5.97;5.53;;;;;;;;;;5022820;28;20037;-72
2023/05/03 13:41:20;;;;;;;5.95;5.55;;;;;;;;;;5024936;28;20064;-72
2023/05/03 13:43:46;;;;;;;5.80;5.40;;;;;;;;;;5025360;28;20459;-72
2023/05/03 13:46:11;;;;;;;5.78;5.18;;;;;;;;;;5024107;28;20037;-72
2023/05/03 13:48:38;;;;;;;6.10;5.50;;;;;;;;;;5022796;28;20041;-72
2023/05/03 13:51:11;;;;;;;5.85;5.38;;;;;;;;;;5024822;28;20044;-72
2023/05/03 13:53:37;;;;;;;5.43;5.03;;;;;;;;;;5024554;28;20038;-72
2023/05/03 13:56:05;;;;;;;5.43;5.13;;;;;;;;;;5005576;28;20045;-72
2023/05/03 13:58:30;;;;;;;5.30;5.00;;;;;;;;;;5024321;28;20747;-72
2023/05/03 14:00:56;;;;;;;5.70;5.30;;;;;;;;;;5025540;28;20036;-72
2023/05/03 14:03:22;;;;;;;5.50;5.15;;;;;;;;;;5024259;28;20041;-72
2023/05/03 14:05:47;;;;;;;4.88;4.57;;;;;;;;;;5023543;28;20041;-72
2023/05/03 14:08:15;;;;;;;5.70;5.20;;;;;;;;;;5024377;28;20611;-72
2023/05/03 14:10:42;;;;;;;5.87;5.27;;;;;;;;;;5021939;28;20052;-72
2023/05/03 14:13:08;;;;;;;5.50;5.05;;;;;;;;;;5024482;28;20041;-72
2023/05/03 14:15:41;;;;;;;5.45;4.95;;;;;;;;;;5021659;28;20386;-72
2023/05/03 14:18:08;;;;;;;5.32;4.93;;;;;;;;;;5024469;28;20055;-72
2023/05/03 14:20:35;;;;;;;4.95;4.65;;;;;;;;;;5024800;28;20041;-72
2023/05/03 14:23:02;;;;;;;5.60;5.15;;;;;;;;;;5024808;28;20067;-72
2023/05/03 14:25:27;;;;;;;5.40;5.10;;;;;;;;;;5020342;28;20041;-72
2023/05/03 14:27:53;;;;;;;5.45;5.15;;;;;;;;;;5024364;28;20045;-72
2023/05/03 14:30:19;;;;;;;5.68;5.20;;;;;;;;;;5024081;28;20432;-72
2023/05/03 14:32:45;;;;;;;5.97;5.53;;;;;;;;;;5007210;28;20041;-71
2023/05/03 14:35:10;;;;;;;5.80;5.40;;;;;;;;;;5003984;28;20042;-72
2023/05/03 14:37:36;;;;;;;5.57;5.18;;;;;;;;;;5024337;28;20120;-72
2023/05/03 14:40:02;;;;;;;5.38;5.00;;;;;;;;;;5020111;28;20045;-72
2023/05/03 14:42:29;;;;;;;5.30;4.90;;;;;;;;;;5021314;28;20133;-71
2023/05/03 14:44:54;;;;;;;5.63;5.22;;;;;;;;;;5006860;28;20108;-72
2023/05/03 14:47:20;;;;;;;5.45;5.05;;;;;;;;;;5025661;28;20116;-72